createdAt,value
2022-09-28T00:00:29.496Z,38.30
2022-09-28T00:01:29.529Z,39.10
2022-09-28T00:02:29.614Z,39.00
2022-09-28T00:03:29.492Z,39.00
2022-09-28T00:04:29.501Z,38.20
2022-09-28T00:05:29.490Z,38.20
2022-09-28T00:06:29.488Z,38.40
2022-09-28T00:07:29.486Z,38.80
2022-09-28T00:08:29.480Z,39.00
2022-09-28T00:09:29.480Z,37.20
2022-09-28T00:10:29.506Z,38.60
2022-09-28T00:11:29.479Z,37.50
2022-09-28T00:12:29.478Z,38.00
2022-09-28T00:13:29.481Z,38.20
2022-09-28T00:14:29.473Z,38.00
2022-09-28T00:15:29.471Z,37.80
2022-09-28T00:16:29.540Z,37.40
2022-09-28T00:17:29.470Z,37.20
2022-09-28T00:18:29.471Z,37.30
2022-09-28T00:19:29.462Z,38.20
2022-09-28T00:20:29.470Z,37.90
2022-09-28T00:21:29.464Z,37.70
2022-09-28T00:22:29.462Z,37.30
2022-09-28T00:23:29.458Z,37.90
2022-09-28T00:24:29.459Z,37.20
2022-09-28T00:25:29.458Z,36.70
2022-09-28T00:26:29.485Z,37.40
2022-09-28T00:27:29.457Z,36.40
2022-09-28T00:28:29.458Z,36.60
2022-09-28T00:29:29.453Z,35.90
2022-09-28T00:30:29.451Z,37.20
2022-09-28T00:31:29.549Z,36.60
2022-09-28T00:32:29.447Z,37.40
2022-09-28T00:33:29.449Z,37.10
2022-09-28T00:34:29.447Z,36.90
2022-09-28T00:35:29.443Z,36.90
2022-09-28T00:36:29.444Z,36.00
2022-09-28T00:37:29.439Z,36.30
2022-09-28T00:38:29.442Z,36.20
2022-09-28T00:39:29.438Z,37.60
2022-09-28T00:40:29.457Z,37.20
2022-09-28T00:41:29.439Z,37.00
2022-09-28T00:42:29.456Z,37.90
2022-09-28T00:43:29.432Z,37.90
2022-09-28T00:44:29.431Z,37.90
2022-09-28T00:45:29.438Z,36.60
2022-09-28T00:46:29.429Z,37.90
2022-09-28T00:47:29.478Z,36.80
2022-09-28T00:48:29.426Z,37.20
2022-09-28T00:49:29.426Z,36.10
2022-09-28T00:50:29.422Z,36.80
2022-09-28T00:51:29.420Z,37.20
2022-09-28T00:52:29.421Z,37.30
2022-09-28T00:53:29.419Z,37.80
2022-09-28T00:54:29.419Z,36.90
2022-09-28T00:55:29.411Z,36.40
2022-09-28T00:56:29.416Z,37.30
2022-09-28T00:57:29.412Z,36.30
2022-09-28T00:58:29.436Z,36.00
2022-09-28T00:59:29.420Z,37.50
2022-09-28T01:00:29.503Z,36.60
2022-09-28T01:01:29.410Z,37.20
2022-09-28T01:02:29.502Z,37.40
2022-09-28T01:03:29.402Z,36.70
2022-09-28T01:04:30.101Z,36.80
2022-09-28T01:05:29.406Z,37.20
2022-09-28T01:06:29.404Z,37.00
2022-09-28T01:07:29.396Z,37.20
2022-09-28T01:08:29.401Z,36.90
2022-09-28T01:09:29.392Z,36.80
2022-09-28T01:10:29.395Z,37.00
2022-09-28T01:11:29.394Z,37.10
2022-09-28T01:12:29.390Z,37.70
2022-09-28T01:13:29.396Z,38.20
2022-09-28T01:14:29.411Z,38.00
2022-09-28T01:15:29.384Z,38.00
2022-09-28T01:16:29.482Z,38.50
2022-09-28T01:17:29.385Z,38.50
2022-09-28T01:18:29.388Z,38.20
2022-09-28T01:19:29.378Z,39.10
2022-09-28T01:20:29.379Z,38.60
2022-09-28T01:21:29.381Z,38.30
2022-09-28T01:22:29.380Z,38.80
2022-09-28T01:23:29.376Z,37.70
2022-09-28T01:24:29.376Z,38.70
2022-09-28T01:25:29.373Z,37.40
2022-09-28T01:26:29.375Z,37.50
2022-09-28T01:27:29.371Z,37.60
2022-09-28T01:28:29.373Z,36.90
2022-09-28T01:29:29.366Z,37.40
2022-09-28T01:30:29.394Z,37.00
2022-09-28T01:31:29.496Z,37.40
2022-09-28T01:32:29.374Z,38.50
2022-09-28T01:33:29.368Z,37.60
2022-09-28T01:34:29.364Z,38.30
2022-09-28T01:35:29.360Z,38.10
2022-09-28T01:36:29.362Z,37.90
2022-09-28T01:37:29.356Z,37.20
2022-09-28T01:38:29.356Z,37.50
2022-09-28T01:39:29.355Z,38.40
2022-09-28T01:40:29.490Z,37.20
2022-09-28T01:41:29.350Z,37.80
2022-09-28T01:42:29.359Z,38.20
2022-09-28T01:43:29.350Z,38.60
2022-09-28T01:44:29.351Z,38.30
2022-09-28T01:45:29.442Z,38.70
2022-09-28T01:46:29.365Z,37.80
2022-09-28T01:47:29.363Z,37.60
2022-09-28T01:48:29.342Z,37.90
2022-09-28T01:49:29.361Z,37.30
2022-09-28T01:50:29.361Z,37.60
2022-09-28T01:51:29.354Z,36.30
2022-09-28T01:52:29.360Z,36.80
2022-09-28T01:53:29.368Z,37.80
2022-09-28T01:54:29.350Z,37.20
2022-09-28T01:55:29.368Z,39.00
2022-09-28T01:56:29.345Z,37.00
2022-09-28T01:57:29.346Z,37.20
2022-09-28T01:58:29.340Z,37.20
2022-09-28T01:59:29.330Z,37.20
2022-09-28T02:00:29.491Z,37.10
2022-09-28T02:01:29.327Z,37.10
2022-09-28T02:02:29.479Z,38.10
2022-09-28T02:03:29.324Z,37.50
2022-09-28T02:04:29.322Z,38.00
2022-09-28T02:05:29.323Z,37.70
2022-09-28T02:06:29.324Z,38.00
2022-09-28T02:07:29.324Z,37.60
2022-09-28T02:08:29.317Z,36.90
2022-09-28T02:09:33.573Z,37.40
2022-09-28T02:10:29.314Z,37.50
2022-09-28T02:11:29.318Z,37.50
2022-09-28T02:12:29.313Z,37.30
2022-09-28T02:13:29.314Z,38.10
2022-09-28T02:14:29.306Z,38.20
2022-09-28T02:15:29.313Z,37.00
2022-09-28T02:16:29.406Z,36.80
2022-09-28T02:17:29.306Z,36.60
2022-09-28T02:18:29.427Z,37.50
2022-09-28T02:19:29.306Z,36.90
2022-09-28T02:20:29.300Z,37.30
2022-09-28T02:21:29.299Z,36.40
2022-09-28T02:22:29.298Z,36.40
2022-09-28T02:23:29.298Z,35.60
2022-09-28T02:24:29.296Z,37.60
2022-09-28T02:25:29.298Z,37.10
2022-09-28T02:26:29.300Z,36.40
2022-09-28T02:27:29.291Z,35.00
2022-09-28T02:28:29.293Z,35.40
2022-09-28T02:29:29.294Z,35.80
2022-09-28T02:30:29.286Z,35.60
2022-09-28T02:31:29.368Z,36.50
2022-09-28T02:32:29.287Z,36.20
2022-09-28T02:33:29.286Z,36.00
2022-09-28T02:34:29.307Z,36.70
2022-09-28T02:35:29.282Z,35.50
2022-09-28T02:36:29.283Z,35.80
2022-09-28T02:37:29.288Z,36.30
2022-09-28T02:38:29.283Z,35.50
2022-09-28T02:39:29.282Z,37.20
2022-09-28T02:40:29.363Z,36.40
2022-09-28T02:41:29.276Z,35.90
2022-09-28T02:42:29.271Z,36.70
2022-09-28T02:43:29.276Z,36.50
2022-09-28T02:44:29.276Z,36.50
2022-09-28T02:45:29.309Z,36.10
2022-09-28T02:46:29.270Z,35.60
2022-09-28T02:47:29.320Z,36.80
2022-09-28T02:48:43.002Z,36.10
2022-09-28T02:49:29.268Z,36.00
2022-09-28T02:50:29.283Z,35.90
2022-09-28T02:51:29.262Z,37.30
2022-09-28T02:52:29.256Z,37.80
2022-09-28T02:53:29.263Z,36.60
2022-09-28T02:54:29.260Z,36.50
2022-09-28T02:55:29.257Z,36.90
2022-09-28T02:56:29.255Z,37.10
2022-09-28T02:57:29.254Z,37.80
2022-09-28T02:58:29.250Z,37.30
2022-09-28T02:59:29.253Z,36.80
2022-09-28T03:00:29.252Z,35.00
2022-09-28T03:01:29.252Z,36.10
2022-09-28T03:02:29.384Z,36.60
2022-09-28T03:03:29.248Z,35.90
2022-09-28T03:04:29.248Z,35.80
2022-09-28T03:05:29.245Z,35.40
2022-09-28T03:06:29.267Z,35.30
2022-09-28T03:07:29.242Z,34.80
2022-09-28T03:08:29.247Z,34.40
2022-09-28T03:09:29.245Z,35.70
2022-09-28T03:10:29.237Z,34.90
2022-09-28T03:11:29.237Z,36.30
2022-09-28T03:12:29.235Z,37.40
2022-09-28T03:13:29.238Z,36.80
2022-09-28T03:14:29.233Z,35.70
2022-09-28T03:15:29.232Z,35.10
2022-09-28T03:16:29.250Z,37.30
2022-09-28T03:17:29.231Z,37.30
2022-09-28T03:18:29.230Z,35.80
2022-09-28T03:19:29.225Z,36.20
2022-09-28T03:20:29.225Z,35.20
2022-09-28T03:21:29.224Z,35.40
2022-09-28T03:22:29.244Z,35.30
2022-09-28T03:23:29.226Z,35.70
2022-09-28T03:24:29.219Z,36.00
2022-09-28T03:25:29.221Z,35.90
2022-09-28T03:26:29.218Z,35.70
2022-09-28T03:27:29.215Z,36.20
2022-09-28T03:28:29.217Z,35.80
2022-09-28T03:29:29.213Z,35.30
2022-09-28T03:30:29.212Z,34.90
2022-09-28T03:31:29.234Z,35.20
2022-09-28T03:32:29.212Z,36.00
2022-09-28T03:33:29.205Z,36.40
2022-09-28T03:34:29.201Z,36.50
2022-09-28T03:35:29.211Z,36.10
2022-09-28T03:36:29.203Z,36.10
2022-09-28T03:37:29.205Z,35.80
2022-09-28T03:38:29.229Z,37.90
2022-09-28T03:39:29.197Z,36.20
2022-09-28T03:40:29.266Z,35.70
2022-09-28T03:41:29.196Z,36.00
2022-09-28T03:42:29.193Z,36.10
2022-09-28T03:43:29.195Z,35.80
2022-09-28T03:44:29.196Z,34.60
2022-09-28T03:45:29.210Z,34.20
2022-09-28T03:46:29.190Z,34.10
2022-09-28T03:47:29.236Z,34.20
2022-09-28T03:48:32.359Z,32.80
2022-09-28T03:49:29.188Z,34.40
2022-09-28T03:50:29.186Z,34.90
2022-09-28T03:51:29.184Z,35.60
2022-09-28T03:52:29.186Z,35.40
2022-09-28T03:53:29.183Z,35.50
2022-09-28T03:54:29.208Z,36.10
2022-09-28T03:55:29.182Z,34.50
2022-09-28T03:56:29.182Z,34.90
2022-09-28T03:57:29.181Z,33.70
2022-09-28T03:58:29.176Z,35.90
2022-09-28T03:59:29.173Z,34.20
2022-09-28T04:00:29.172Z,33.50
2022-09-28T04:01:29.309Z,32.90
2022-09-28T04:02:29.255Z,33.60
2022-09-28T04:03:29.178Z,33.70
2022-09-28T04:04:29.171Z,32.60
2022-09-28T04:05:29.169Z,32.10
2022-09-28T04:06:29.165Z,33.20
2022-09-28T04:07:31.238Z,33.40
2022-09-28T04:08:29.168Z,33.80
2022-09-28T04:09:29.161Z,33.40
2022-09-28T04:10:29.180Z,36.20
2022-09-28T04:11:38.522Z,34.00
2022-09-28T04:12:29.154Z,34.20
2022-09-28T04:13:29.155Z,33.70
2022-09-28T04:14:29.164Z,33.60
2022-09-28T04:15:29.155Z,33.10
2022-09-28T04:16:29.218Z,33.40
2022-09-28T04:17:29.152Z,33.50
2022-09-28T04:18:29.153Z,32.90
2022-09-28T04:19:29.153Z,32.60
2022-09-28T04:20:29.145Z,32.60
2022-09-28T04:21:29.147Z,33.20
2022-09-28T04:22:29.145Z,34.40
2022-09-28T04:23:29.142Z,33.50
2022-09-28T04:24:29.143Z,33.20
2022-09-28T04:25:29.143Z,32.60
2022-09-28T04:26:29.169Z,33.30
2022-09-28T04:27:29.139Z,33.10
2022-09-28T04:28:29.133Z,33.40
2022-09-28T04:29:29.137Z,33.40
2022-09-28T04:30:29.137Z,33.60
2022-09-28T04:31:29.195Z,34.00
2022-09-28T04:32:29.132Z,34.10
2022-09-28T04:33:29.132Z,32.40
2022-09-28T04:34:34.475Z,33.50
2022-09-28T04:35:29.140Z,33.40
2022-09-28T04:36:29.123Z,33.60
2022-09-28T04:37:29.128Z,32.80
2022-09-28T04:38:48.735Z,33.30
2022-09-28T04:39:29.118Z,34.30
2022-09-28T04:40:29.171Z,33.40
2022-09-28T04:41:29.118Z,32.90
2022-09-28T04:42:29.141Z,33.40
2022-09-28T04:43:29.118Z,33.20
2022-09-28T04:44:29.115Z,34.10
2022-09-28T04:45:29.161Z,33.70
2022-09-28T04:46:29.112Z,35.20
2022-09-28T04:47:29.161Z,35.30
2022-09-28T04:48:29.215Z,34.30
2022-09-28T04:49:29.107Z,34.70
2022-09-28T04:50:29.114Z,36.00
2022-09-28T04:51:29.104Z,35.80
2022-09-28T04:52:29.105Z,34.70
2022-09-28T04:53:29.102Z,36.20
2022-09-28T04:54:29.100Z,33.90
2022-09-28T04:55:29.100Z,34.80
2022-09-28T04:56:29.099Z,34.10
2022-09-28T04:57:29.091Z,35.80
2022-09-28T04:58:29.115Z,34.50
2022-09-28T04:59:29.093Z,36.30
2022-09-28T05:00:29.091Z,35.80
2022-09-28T05:01:29.195Z,38.70
2022-09-28T05:02:29.130Z,38.20
2022-09-28T05:03:29.092Z,34.10
2022-09-28T05:04:29.087Z,33.10
2022-09-28T05:05:29.086Z,34.90
2022-09-28T05:06:29.085Z,33.30
2022-09-28T05:07:29.082Z,34.90
2022-09-28T05:08:29.084Z,34.10
2022-09-28T05:09:29.085Z,33.60
2022-09-28T05:10:29.080Z,33.10
2022-09-28T05:11:29.077Z,33.30
2022-09-28T05:12:29.079Z,32.50
2022-09-28T05:13:29.076Z,33.60
2022-09-28T05:14:29.112Z,33.20
2022-09-28T05:15:29.074Z,32.70
2022-09-28T05:16:29.173Z,33.80
2022-09-28T05:17:29.074Z,34.30
2022-09-28T05:18:29.067Z,36.20
2022-09-28T05:19:29.068Z,36.30
2022-09-28T05:20:29.066Z,35.90
2022-09-28T05:21:29.066Z,35.60
2022-09-28T05:22:29.063Z,36.10
2022-09-28T05:23:29.060Z,34.90
2022-09-28T05:24:29.066Z,35.10
2022-09-28T05:25:29.059Z,34.30
2022-09-28T05:26:29.057Z,35.00
2022-09-28T05:27:29.057Z,34.60
2022-09-28T05:28:29.060Z,35.60
2022-09-28T05:29:32.259Z,35.30
2022-09-28T05:30:29.076Z,35.40
2022-09-28T05:31:29.122Z,35.30
2022-09-28T05:32:29.053Z,35.60
2022-09-28T05:33:29.048Z,33.70
2022-09-28T05:34:29.050Z,33.40
2022-09-28T05:35:29.048Z,36.20
2022-09-28T05:36:29.045Z,35.50
2022-09-28T05:37:29.045Z,33.40
2022-09-28T05:38:29.041Z,34.00
2022-09-28T05:39:29.037Z,34.60
2022-09-28T05:40:29.059Z,33.90
2022-09-28T05:41:29.036Z,34.50
2022-09-28T05:42:29.036Z,34.80
2022-09-28T05:43:29.036Z,36.00
2022-09-28T05:44:29.037Z,36.00
2022-09-28T05:45:29.122Z,32.80
2022-09-28T05:46:29.144Z,36.10
2022-09-28T05:47:29.028Z,35.90
2022-09-28T05:51:01.688Z,33.90
2022-09-28T05:52:01.658Z,32.50
2022-09-28T05:53:01.658Z,34.20
2022-09-28T05:54:05.666Z,34.20
2022-09-28T05:55:01.657Z,34.40
2022-09-28T05:56:01.655Z,35.10
2022-09-28T05:57:01.653Z,35.10
2022-09-28T05:58:01.656Z,34.70
2022-09-28T05:59:01.652Z,34.90
2022-09-28T06:00:01.653Z,34.90
2022-09-28T06:01:01.683Z,34.90
2022-09-28T06:02:01.759Z,34.50
2022-09-28T06:03:04.372Z,33.00
2022-09-28T06:04:01.649Z,33.20
2022-09-28T06:05:01.643Z,33.90
2022-09-28T06:06:01.646Z,33.70
2022-09-28T06:07:01.639Z,34.80
2022-09-28T06:08:01.640Z,33.90
2022-09-28T06:09:01.637Z,33.60
2022-09-28T06:10:01.634Z,35.90
2022-09-28T06:11:01.634Z,33.90
2022-09-28T06:12:01.632Z,33.40
2022-09-28T06:13:01.635Z,31.70
2022-09-28T06:14:01.629Z,32.50
2022-09-28T06:15:01.629Z,35.20
2022-09-28T06:16:01.637Z,35.40
2022-09-28T06:17:01.693Z,34.40
2022-09-28T06:18:01.640Z,31.00
2022-09-28T06:19:01.630Z,33.10
2022-09-28T06:20:01.623Z,31.60
2022-09-28T06:21:01.622Z,34.90
2022-09-28T06:22:01.619Z,34.80
2022-09-28T06:23:01.622Z,34.90
2022-09-28T06:24:01.617Z,32.30
2022-09-28T06:25:01.614Z,32.90
2022-09-28T06:26:01.619Z,33.10
2022-09-28T06:27:01.615Z,32.20
2022-09-28T06:28:01.615Z,32.50
2022-09-28T06:29:01.613Z,32.80
2022-09-28T06:30:01.611Z,32.90
2022-09-28T06:31:01.677Z,32.60
2022-09-28T06:32:01.604Z,31.50
2022-09-28T06:33:01.607Z,34.00
2022-09-28T06:34:01.636Z,34.50
2022-09-28T06:35:01.601Z,34.30
2022-09-28T06:36:01.606Z,33.00
2022-09-28T06:37:01.599Z,33.30
2022-09-28T06:38:01.613Z,32.90
2022-09-28T06:39:01.601Z,33.00
2022-09-28T06:40:01.596Z,33.70
2022-09-28T06:41:01.671Z,36.20
2022-09-28T06:42:01.593Z,34.20
2022-09-28T06:43:01.594Z,37.00
2022-09-28T06:44:01.593Z,36.10
2022-09-28T06:45:01.592Z,32.80
2022-09-28T06:46:01.635Z,36.30
2022-09-28T06:47:01.588Z,36.60
2022-09-28T06:48:01.600Z,34.00
2022-09-28T06:49:01.589Z,36.80
2022-09-28T06:50:01.607Z,35.70
2022-09-28T06:51:01.588Z,33.30
2022-09-28T06:52:01.582Z,34.50
2022-09-28T06:53:01.584Z,34.30
2022-09-28T06:54:01.580Z,34.10
2022-09-28T06:55:01.587Z,35.30
2022-09-28T06:56:01.577Z,36.90
2022-09-28T06:57:01.585Z,35.90
2022-09-28T06:58:01.579Z,32.70
2022-09-28T06:59:01.575Z,35.90
2022-09-28T07:00:01.573Z,34.40
2022-09-28T07:01:01.702Z,32.20
2022-09-28T07:02:01.636Z,32.30
2022-09-28T07:03:01.570Z,33.40
2022-09-28T07:04:01.577Z,30.50
2022-09-28T07:05:01.572Z,32.40
2022-09-28T07:06:01.588Z,28.60
2022-09-28T07:07:01.568Z,25.00
2022-09-28T07:08:01.570Z,24.80
2022-09-28T07:09:17.396Z,25.30
2022-09-28T07:10:01.564Z,27.40
2022-09-28T07:11:01.571Z,26.60
2022-09-28T07:12:01.566Z,26.90
2022-09-28T07:13:01.564Z,27.90
2022-09-28T07:14:01.558Z,27.90
2022-09-28T07:15:01.563Z,26.40
2022-09-28T07:16:01.560Z,27.70
2022-09-28T07:17:13.234Z,27.80
2022-09-28T07:18:03.532Z,25.70
2022-09-28T07:19:01.558Z,27.60
2022-09-28T07:20:12.742Z,27.60
2022-09-28T07:21:01.555Z,24.60
2022-09-28T07:22:05.017Z,27.70
2022-09-28T07:23:14.619Z,27.50
2022-09-28T07:24:01.557Z,24.10
2022-09-28T07:25:01.561Z,26.90
2022-09-28T07:26:01.651Z,26.60
2022-09-28T07:27:01.551Z,25.00
2022-09-28T07:28:01.551Z,23.90
2022-09-28T07:29:01.555Z,27.30
2022-09-28T07:30:01.580Z,27.50
2022-09-28T07:31:01.616Z,24.50
2022-09-28T07:32:01.546Z,24.30
2022-09-28T07:33:01.549Z,26.20
2022-09-28T07:34:01.547Z,25.10
2022-09-28T07:35:01.559Z,23.00
2022-09-28T07:36:01.544Z,24.50
2022-09-28T07:37:01.544Z,23.90
2022-09-28T07:38:01.570Z,23.60
2022-09-28T07:39:01.545Z,24.30
2022-09-28T07:40:01.547Z,26.00
2022-09-28T07:41:01.653Z,22.50
2022-09-28T07:42:03.043Z,22.50
2022-09-28T07:43:01.544Z,22.20
2022-09-28T07:44:01.549Z,22.60
2022-09-28T07:45:01.541Z,22.00
2022-09-28T07:46:01.656Z,21.90
2022-09-28T07:47:01.544Z,20.60
2022-09-28T07:48:01.668Z,19.90
2022-09-28T07:49:01.539Z,19.40
2022-09-28T07:50:01.559Z,19.20
2022-09-28T07:51:01.540Z,19.40
2022-09-28T07:52:01.541Z,18.20
2022-09-28T07:53:01.537Z,18.70
2022-09-28T07:54:01.563Z,19.20
2022-09-28T07:55:06.686Z,18.40
2022-09-28T07:56:01.541Z,18.40
2022-09-28T07:57:01.541Z,18.30
2022-09-28T07:58:01.539Z,18.40
2022-09-28T07:59:01.540Z,18.60
2022-09-28T08:00:01.538Z,18.80
2022-09-28T08:01:01.617Z,18.60
2022-09-28T08:02:01.605Z,18.70
2022-09-28T08:03:01.539Z,18.70
2022-09-28T08:04:01.540Z,18.20
2022-09-28T08:05:01.549Z,18.30
2022-09-28T08:06:01.539Z,17.80
2022-09-28T08:07:01.539Z,18.70
2022-09-28T08:08:01.543Z,18.80
2022-09-28T08:09:01.548Z,17.80
2022-09-28T08:10:01.556Z,18.60
2022-09-28T08:11:01.545Z,18.10
2022-09-28T08:12:01.546Z,18.60
2022-09-28T08:13:02.872Z,18.10
2022-09-28T08:14:01.540Z,17.90
2022-09-28T08:15:01.541Z,17.40
2022-09-28T08:16:01.554Z,17.80
2022-09-28T08:17:01.561Z,17.90
2022-09-28T08:18:02.921Z,17.20
2022-09-28T08:19:01.540Z,17.20
2022-09-28T08:20:01.553Z,17.20
2022-09-28T08:21:01.543Z,16.90
2022-09-28T08:22:01.538Z,16.70
2022-09-28T08:23:01.573Z,17.10
2022-09-28T08:24:01.540Z,16.80
2022-09-28T08:25:01.541Z,16.40
2022-09-28T08:26:01.567Z,16.20
2022-09-28T08:27:01.547Z,16.30
2022-09-28T08:28:01.555Z,16.30
2022-09-28T08:29:01.550Z,16.00
2022-09-28T08:30:01.547Z,16.10
2022-09-28T08:31:01.665Z,16.10
2022-09-28T08:32:02.027Z,15.90
2022-09-28T08:33:01.553Z,15.70
2022-09-28T08:34:01.552Z,16.00
2022-09-28T08:35:01.552Z,16.00
2022-09-28T08:36:01.552Z,15.70
2022-09-28T08:37:01.557Z,16.30
2022-09-28T08:38:01.548Z,15.80
2022-09-28T08:39:01.551Z,16.00
2022-09-28T08:40:01.559Z,16.00
2022-09-28T08:41:01.610Z,16.10
2022-09-28T08:42:01.574Z,16.20
2022-09-28T08:43:01.555Z,16.00
2022-09-28T08:44:01.577Z,15.80
2022-09-28T08:45:01.561Z,16.30
2022-09-28T08:46:01.669Z,15.40
2022-09-28T08:47:01.567Z,15.30
2022-09-28T08:48:01.554Z,15.90
2022-09-28T08:49:20.980Z,15.90
2022-09-28T08:50:01.596Z,15.10
2022-09-28T08:51:01.563Z,16.00
2022-09-28T08:52:01.561Z,15.50
2022-09-28T08:53:01.564Z,15.30
2022-09-28T08:54:01.566Z,15.30
2022-09-28T08:55:01.565Z,15.60
2022-09-28T08:56:01.562Z,15.40
2022-09-28T08:57:01.571Z,15.70
2022-09-28T08:58:01.580Z,15.40
2022-09-28T08:59:01.563Z,15.60
2022-09-28T09:00:01.567Z,15.30
2022-09-28T09:01:01.608Z,15.20
2022-09-28T09:02:02.144Z,15.00
2022-09-28T09:03:01.563Z,15.00
2022-09-28T09:04:01.568Z,14.90
2022-09-28T09:05:01.562Z,14.80
2022-09-28T09:06:01.563Z,14.50
2022-09-28T09:07:01.561Z,14.60
2022-09-28T09:08:01.563Z,14.90
2022-09-28T09:09:01.566Z,15.40
2022-09-28T09:10:01.567Z,14.60
2022-09-28T09:11:01.565Z,14.90
2022-09-28T09:12:01.568Z,14.90
2022-09-28T09:13:01.576Z,14.70
2022-09-28T09:14:01.587Z,14.40
2022-09-28T09:15:01.565Z,14.80
2022-09-28T09:16:01.568Z,14.50
2022-09-28T09:17:01.621Z,14.50
2022-09-28T09:18:01.569Z,15.80
2022-09-28T09:19:01.575Z,14.60
2022-09-28T09:20:01.603Z,14.30
2022-09-28T09:21:01.571Z,14.50
2022-09-28T09:22:01.568Z,14.50
2022-09-28T09:23:01.571Z,14.60
2022-09-28T09:24:01.575Z,14.50
2022-09-28T09:25:01.569Z,14.40
2022-09-28T09:26:01.566Z,14.60
2022-09-28T09:27:01.577Z,14.10
2022-09-28T09:28:01.580Z,14.20
2022-09-28T09:29:01.572Z,14.40
2022-09-28T09:30:01.601Z,13.80
2022-09-28T09:31:01.608Z,14.10
2022-09-28T09:32:01.571Z,14.30
2022-09-28T09:33:01.572Z,14.20
2022-09-28T09:34:01.579Z,14.00
2022-09-28T09:35:01.576Z,14.20
2022-09-28T09:36:01.571Z,14.00
2022-09-28T09:37:01.575Z,14.40
2022-09-28T09:38:01.574Z,14.10
2022-09-28T09:39:01.576Z,14.10
2022-09-28T09:40:01.575Z,14.10
2022-09-28T09:41:01.730Z,13.70
2022-09-28T09:42:01.578Z,13.60
2022-09-28T09:43:01.578Z,14.30
2022-09-28T09:44:01.577Z,13.40
2022-09-28T09:45:01.593Z,13.80
2022-09-28T09:46:02.039Z,13.00
2022-09-28T09:47:01.572Z,12.70
2022-09-28T09:48:01.575Z,12.70
2022-09-28T09:49:01.579Z,13.10
2022-09-28T09:50:05.311Z,12.40
2022-09-28T09:51:01.577Z,13.10
2022-09-28T09:52:01.574Z,13.60
2022-09-28T09:53:01.585Z,13.30
2022-09-28T09:54:01.574Z,13.80
2022-09-28T09:55:01.583Z,13.90
2022-09-28T09:56:01.586Z,14.80
2022-09-28T09:57:01.577Z,14.30
2022-09-28T09:58:01.574Z,13.90
2022-09-28T09:59:01.579Z,13.70
2022-09-28T10:00:01.578Z,13.40
2022-09-28T10:01:01.671Z,13.50
2022-09-28T10:02:01.654Z,15.30
2022-09-28T10:03:01.650Z,13.80
2022-09-28T10:04:01.582Z,13.50
2022-09-28T10:05:01.580Z,13.50
2022-09-28T10:06:01.580Z,13.50
2022-09-28T10:07:01.581Z,13.30
2022-09-28T10:08:01.585Z,13.50
2022-09-28T10:09:01.586Z,14.00
2022-09-28T10:10:01.585Z,13.90
2022-09-28T10:11:01.583Z,13.90
2022-09-28T10:12:01.593Z,14.00
2022-09-28T10:13:01.586Z,14.00
2022-09-28T10:14:01.588Z,13.90
2022-09-28T10:15:01.591Z,13.50
2022-09-28T10:16:01.593Z,14.30
2022-09-28T10:17:01.628Z,14.50
2022-09-28T10:18:01.622Z,13.40
2022-09-28T10:19:01.591Z,13.70
2022-09-28T10:20:01.595Z,13.40
2022-09-28T10:21:01.596Z,13.10
2022-09-28T10:22:01.604Z,13.20
2022-09-28T10:23:01.601Z,12.80
2022-09-28T10:24:01.604Z,12.50
2022-09-28T10:25:01.601Z,12.70
2022-09-28T10:26:01.605Z,12.10
2022-09-28T10:27:01.611Z,12.00
2022-09-28T10:28:01.607Z,11.60
2022-09-28T10:29:01.617Z,12.10
2022-09-28T10:30:01.615Z,12.40
2022-09-28T10:31:01.773Z,12.10
2022-09-28T10:32:01.622Z,11.70
2022-09-28T10:33:01.618Z,12.60
2022-09-28T10:34:01.645Z,12.20
2022-09-28T10:35:01.632Z,12.50
2022-09-28T10:36:01.631Z,12.60
2022-09-28T10:37:01.628Z,12.60
2022-09-28T10:38:01.634Z,12.10
2022-09-28T10:39:01.639Z,12.40
2022-09-28T10:40:01.632Z,12.40
2022-09-28T10:41:01.727Z,12.90
2022-09-28T10:42:01.636Z,12.70
2022-09-28T10:43:01.637Z,12.00
2022-09-28T10:44:01.642Z,12.60
2022-09-28T10:45:01.646Z,13.00
2022-09-28T10:46:01.770Z,12.80
2022-09-28T10:47:01.647Z,12.50
2022-09-28T10:48:01.649Z,12.80
2022-09-28T10:49:01.647Z,12.60
2022-09-28T10:50:01.672Z,12.60
2022-09-28T10:51:01.648Z,13.00
2022-09-28T10:52:01.665Z,13.10
2022-09-28T10:53:01.656Z,13.10
2022-09-28T10:54:01.662Z,13.40
2022-09-28T10:55:01.659Z,13.40
2022-09-28T10:56:01.656Z,13.40
2022-09-28T10:57:01.654Z,13.00
2022-09-28T10:58:01.660Z,13.40
2022-09-28T10:59:01.662Z,12.50
2022-09-28T11:00:01.660Z,12.80
2022-09-28T11:01:01.807Z,13.00
2022-09-28T11:02:01.751Z,13.00
2022-09-28T11:03:01.727Z,13.00
2022-09-28T11:04:01.666Z,11.50
2022-09-28T11:05:01.663Z,11.40
2022-09-28T11:06:01.684Z,11.00
2022-09-28T11:07:01.687Z,10.90
2022-09-28T11:08:01.666Z,10.20
2022-09-28T11:09:01.668Z,10.60
2022-09-28T11:10:01.668Z,11.90
2022-09-28T11:11:01.675Z,12.80
2022-09-28T11:12:01.670Z,11.90
2022-09-28T11:13:01.669Z,11.40
2022-09-28T11:14:01.674Z,11.50
2022-09-28T11:15:01.673Z,11.60
2022-09-28T11:16:01.670Z,11.70
2022-09-28T11:17:01.787Z,12.10
2022-09-28T11:18:01.671Z,12.20
2022-09-28T11:19:01.673Z,11.40
2022-09-28T11:20:01.671Z,11.90
2022-09-28T11:21:01.673Z,12.60
2022-09-28T11:22:01.691Z,12.40
2022-09-28T11:23:01.674Z,12.10
2022-09-28T11:24:01.677Z,12.40
2022-09-28T11:25:01.675Z,11.80
2022-09-28T11:26:01.678Z,12.40
2022-09-28T11:27:01.670Z,12.60
2022-09-28T11:28:01.675Z,12.20
2022-09-28T11:29:01.670Z,12.10
2022-09-28T11:30:01.674Z,12.10
2022-09-28T11:31:01.757Z,12.50
2022-09-28T11:32:01.673Z,11.80
2022-09-28T11:33:01.672Z,12.20
2022-09-28T11:34:01.677Z,12.30
2022-09-28T11:35:01.669Z,12.30
2022-09-28T11:36:01.674Z,12.60
2022-09-28T11:37:02.062Z,12.60
2022-09-28T11:38:01.695Z,12.90
2022-09-28T11:39:01.682Z,12.20
2022-09-28T11:40:01.681Z,12.10
2022-09-28T11:41:01.751Z,12.00
2022-09-28T11:42:01.675Z,12.80
2022-09-28T11:43:01.753Z,12.10
2022-09-28T11:44:01.676Z,12.20
2022-09-28T11:45:01.673Z,12.50
2022-09-28T11:46:01.734Z,12.40
2022-09-28T11:47:01.678Z,12.10
2022-09-28T11:48:01.675Z,12.00
2022-09-28T11:49:01.670Z,11.90
2022-09-28T11:50:01.673Z,12.30
2022-09-28T11:51:01.673Z,12.20
2022-09-28T11:52:01.672Z,11.80
2022-09-28T11:53:01.720Z,12.30
2022-09-28T11:54:01.691Z,12.00
2022-09-28T11:55:01.687Z,11.50
2022-09-28T11:56:05.310Z,11.50
2022-09-28T11:57:01.672Z,11.90
2022-09-28T11:58:01.677Z,11.50
2022-09-28T11:59:01.667Z,11.70
2022-09-28T12:00:01.680Z,12.00
2022-09-28T12:01:01.672Z,12.40
2022-09-28T12:02:01.756Z,11.40
2022-09-28T12:03:01.782Z,12.30
2022-09-28T12:04:01.673Z,12.50
2022-09-28T12:05:01.667Z,12.50
2022-09-28T12:06:01.672Z,12.30
2022-09-28T12:07:01.673Z,12.60
2022-09-28T12:08:01.672Z,12.60
2022-09-28T12:09:01.667Z,12.30
2022-09-28T12:10:01.700Z,12.00
2022-09-28T12:11:01.668Z,11.90
2022-09-28T12:12:01.666Z,11.70
2022-09-28T12:13:01.676Z,11.50
2022-09-28T12:14:01.669Z,11.90
2022-09-28T12:15:01.670Z,11.70
2022-09-28T12:17:06.210Z,11.50
2022-09-28T12:18:01.767Z,11.20
2022-09-28T12:19:01.789Z,11.40
2022-09-28T12:20:01.678Z,11.50
2022-09-28T12:21:05.075Z,11.50
2022-09-28T12:22:01.670Z,11.40
2022-09-28T12:23:01.665Z,11.50
2022-09-28T12:24:01.666Z,12.00
2022-09-28T12:25:01.664Z,11.70
2022-09-28T12:26:01.684Z,11.80
2022-09-28T12:27:01.665Z,11.70
2022-09-28T12:28:01.665Z,11.70
2022-09-28T12:29:01.663Z,12.20
2022-09-28T12:30:01.667Z,12.70
2022-09-28T12:31:01.688Z,12.30
2022-09-28T12:32:01.664Z,11.80
2022-09-28T12:33:01.669Z,11.20
2022-09-28T12:34:01.667Z,11.30
2022-09-28T12:35:01.662Z,11.70
2022-09-28T12:36:01.664Z,11.00
2022-09-28T12:37:01.664Z,11.50
2022-09-28T12:38:01.664Z,11.20
2022-09-28T12:39:19.021Z,11.10
2022-09-28T12:40:02.136Z,11.30
2022-09-28T12:41:01.801Z,10.70
2022-09-28T12:42:01.683Z,11.50
2022-09-28T12:43:01.679Z,11.50
2022-09-28T12:44:01.663Z,11.70
2022-09-28T12:45:01.663Z,11.40
2022-09-28T12:46:13.269Z,11.70
2022-09-28T12:47:01.719Z,13.30
2022-09-28T12:48:01.663Z,11.50
2022-09-28T12:49:56.296Z,11.10
2022-09-28T12:51:02.098Z,12.10
2022-09-28T12:52:01.663Z,11.90
2022-09-28T12:53:03.133Z,11.70
2022-09-28T12:54:01.672Z,12.00
2022-09-28T12:55:01.730Z,11.70
2022-09-28T12:56:01.667Z,11.70
2022-09-28T12:57:01.662Z,11.90